Terminal Aerodrome Forecast
Issued by NWS

Current Version | Previous Version | Graphics & Text | Print | Product List | Glossary On
Versions: 1 2 3 4 5 6 7 8 9 10 11 12 13 14 15 16 17 18 19 20 21 22 23 24
726
FTUS41 KRLX 151724
TAFCKB
TAF
KCKB 151724Z 1518/1618 23010G21KT P6SM FEW040
     FM152200 23009G17KT P6SM BKN025
     FM152300 24009G17KT 5SM SHRA BR OVC015
     FM160300 32008KT P6SM BKN025
     FM160900 32007KT P6SM BKN025
     FM161600 31006KT P6SM BKN035
     FM161700 31006KT P6SM SCT040=

USA.gov is the U.S. government's official web portal to all federal, state and local government web resources and services.